Time;durP1;ratioP1;P1;durP2;ratioP2;P2;SDS_P1;SDS_P2;PMS_P1;PMS_P2;Temp;Humidity;BMP_temperature;BMP_pressure;BME280_temperature;BME280_humidity;BME280_pressure;Samples;Min_cycle;Max_cycle;Signal;HPM_P1;HPM_P2
2023/05/19 00:02:24;;;;;;;3.70;3.40;;;;;;;;;;4968028;28;20039;-42
2023/05/19 00:04:50;;;;;;;3.35;2.90;;;;;;;;;;4968160;28;20031;-42
2023/05/19 00:07:20;;;;;;;4.95;3.00;;;;;;;;;;4967446;28;20053;-41
2023/05/19 00:09:46;;;;;;;3.78;3.03;;;;;;;;;;4967649;28;20089;-41
2023/05/19 00:12:12;;;;;;;4.00;3.42;;;;;;;;;;4964019;28;20038;-42
2023/05/19 00:14:38;;;;;;;3.35;3.08;;;;;;;;;;4965098;28;20027;-41
2023/05/19 00:17:03;;;;;;;3.30;2.97;;;;;;;;;;4964169;28;20045;-41
2023/05/19 00:19:31;;;;;;;4.43;3.10;;;;;;;;;;4965287;28;20056;-41
2023/05/19 00:21:57;;;;;;;4.75;2.88;;;;;;;;;;4962883;28;20036;-42
2023/05/19 00:24:22;;;;;;;4.95;3.25;;;;;;;;;;4966655;28;20102;-41
2023/05/19 00:26:48;;;;;;;3.83;3.00;;;;;;;;;;4966411;28;20043;-42
2023/05/19 00:29:17;;;;;;;3.72;2.92;;;;;;;;;;4966816;28;20039;-41
2023/05/19 00:31:42;;;;;;;4.95;3.00;;;;;;;;;;4966074;28;20069;-42
2023/05/19 00:34:08;;;;;;;3.00;2.70;;;;;;;;;;4964362;28;20073;-43
2023/05/19 00:36:33;;;;;;;3.08;2.80;;;;;;;;;;4967623;28;20518;-44
2023/05/19 00:38:58;;;;;;;3.63;2.83;;;;;;;;;;4966070;28;20035;-42
2023/05/19 00:41:24;;;;;;;4.47;2.50;;;;;;;;;;4966164;28;20078;-41
2023/05/19 00:43:50;;;;;;;3.15;2.85;;;;;;;;;;4966190;28;20062;-44
2023/05/19 00:46:15;;;;;;;4.43;2.90;;;;;;;;;;4962614;28;20130;-44
2023/05/19 00:48:43;;;;;;;3.10;2.90;;;;;;;;;;4963907;28;20031;-44
2023/05/19 00:51:09;;;;;;;3.33;3.10;;;;;;;;;;4965117;28;20094;-43
2023/05/19 00:53:34;;;;;;;3.17;2.88;;;;;;;;;;4964690;28;20061;-42
2023/05/19 00:56:01;;;;;;;3.50;2.67;;;;;;;;;;4964102;28;20058;-41
2023/05/19 00:58:29;;;;;;;5.05;3.00;;;;;;;;;;4964210;28;20027;-41
2023/05/19 01:01:01;;;;;;;3.28;2.97;;;;;;;;;;4965903;28;20123;-42
2023/05/19 01:03:30;;;;;;;3.65;3.25;;;;;;;;;;4964784;28;20062;-45
2023/05/19 01:06:00;;;;;;;5.88;3.50;;;;;;;;;;4965612;28;20041;-41
2023/05/19 01:08:26;;;;;;;3.75;3.45;;;;;;;;;;4965404;28;20049;-42
2023/05/19 01:10:52;;;;;;;4.55;3.50;;;;;;;;;;4964963;28;20112;-41
2023/05/19 01:13:17;;;;;;;7.57;3.42;;;;;;;;;;4964732;28;20487;-41
2023/05/19 01:16:05;;;;;;;3.60;3.30;;;;;;;;;;4964564;28;20086;-41
2023/05/19 01:19:00;;;;;;;5.55;3.92;;;;;;;;;;4960532;28;20031;-42
2023/05/19 01:21:50;;;;;;;3.45;3.00;;;;;;;;;;4965555;28;20067;-41
2023/05/19 01:24:21;;;;;;;3.50;3.20;;;;;;;;;;4965693;28;20031;-42
2023/05/19 01:27:08;;;;;;;7.10;3.60;;;;;;;;;;4965865;28;20109;-41
2023/05/19 01:29:52;;;;;;;3.88;3.22;;;;;;;;;;4964489;28;20027;-42
2023/05/19 01:32:20;;;;;;;6.65;3.40;;;;;;;;;;4963756;28;20047;-42
2023/05/19 01:34:48;;;;;;;8.88;3.38;;;;;;;;;;4965598;28;20026;-42
2023/05/19 01:37:16;;;;;;;6.40;3.83;;;;;;;;;;4964631;28;20047;-41
2023/05/19 01:39:43;;;;;;;3.78;3.47;;;;;;;;;;4965998;28;20989;-45
2023/05/19 01:42:10;;;;;;;4.38;3.92;;;;;;;;;;4963560;28;20377;-44
2023/05/19 01:44:36;;;;;;;4.20;3.70;;;;;;;;;;4963878;28;20101;-43
2023/05/19 01:47:03;;;;;;;5.70;3.67;;;;;;;;;;4966432;28;20129;-42
2023/05/19 01:49:28;;;;;;;4.55;4.15;;;;;;;;;;4964967;28;20049;-42
2023/05/19 01:51:55;;;;;;;5.32;3.90;;;;;;;;;;4964363;28;20043;-45
2023/05/19 01:54:20;;;;;;;6.65;3.92;;;;;;;;;;4963799;28;20381;-41
2023/05/19 01:56:56;;;;;;;5.63;3.80;;;;;;;;;;4965106;28;20046;-42
2023/05/19 01:59:22;;;;;;;4.97;3.83;;;;;;;;;;4962401;28;20050;-43
2023/05/19 02:01:59;;;;;;;4.25;3.72;;;;;;;;;;4963319;28;20043;-42
2023/05/19 02:04:47;;;;;;;6.78;4.35;;;;;;;;;;4964918;28;20035;-45
2023/05/19 02:07:21;;;;;;;5.45;4.05;;;;;;;;;;4966161;28;20043;-41
2023/05/19 02:10:33;;;;;;;4.75;3.75;;;;;;;;;;4963219;28;20031;-42
2023/05/19 02:13:03;;;;;;;3.95;3.63;;;;;;;;;;4980642;28;20125;-43
2023/05/19 02:15:37;;;;;;;4.38;4.03;;;;;;;;;;4983451;28;20141;-44
2023/05/19 02:18:03;;;;;;;4.18;3.85;;;;;;;;;;4980896;28;20030;-42
2023/05/19 02:20:29;;;;;;;4.78;3.55;;;;;;;;;;4982029;28;20038;-42
2023/05/19 02:22:55;;;;;;;7.32;4.10;;;;;;;;;;4985826;28;20076;-43
2023/05/19 02:25:20;;;;;;;3.88;3.50;;;;;;;;;;4983612;28;20023;-43
2023/05/19 02:27:47;;;;;;;5.15;3.80;;;;;;;;;;4983920;28;20101;-42
2023/05/19 02:30:13;;;;;;;4.03;3.67;;;;;;;;;;4983665;28;20038;-42
2023/05/19 02:32:39;;;;;;;3.70;3.30;;;;;;;;;;4984512;28;20038;-42
2023/05/19 02:35:04;;;;;;;5.57;4.07;;;;;;;;;;4982648;28;20034;-41
2023/05/19 02:37:31;;;;;;;4.25;3.85;;;;;;;;;;4983738;28;20050;-43
2023/05/19 02:39:57;;;;;;;6.00;4.10;;;;;;;;;;4981396;28;20064;-43
2023/05/19 02:42:22;;;;;;;4.22;3.83;;;;;;;;;;4980683;28;20066;-41
2023/05/19 02:44:48;;;;;;;3.80;3.45;;;;;;;;;;4985958;28;20037;-42
2023/05/19 02:47:13;;;;;;;4.25;3.85;;;;;;;;;;4978973;28;20054;-44
2023/05/19 02:49:39;;;;;;;5.63;3.80;;;;;;;;;;4984008;28;20084;-42
2023/05/19 02:52:05;;;;;;;3.95;3.60;;;;;;;;;;4979728;28;20133;-44
2023/05/19 02:54:31;;;;;;;5.28;3.83;;;;;;;;;;4984664;28;20021;-46
2023/05/19 02:56:57;;;;;;;4.75;4.10;;;;;;;;;;4982163;28;20069;-42
2023/05/19 02:59:23;;;;;;;4.82;4.00;;;;;;;;;;4984477;28;20523;-44
2023/05/19 03:01:49;;;;;;;5.47;4.40;;;;;;;;;;4985780;28;20093;-42
2023/05/19 03:04:15;;;;;;;4.20;3.80;;;;;;;;;;4980203;28;20443;-42
2023/05/19 03:06:41;;;;;;;4.88;3.85;;;;;;;;;;4983776;28;20104;-42
2023/05/19 03:09:07;;;;;;;5.30;4.07;;;;;;;;;;4984555;28;20080;-44
2023/05/19 03:11:32;;;;;;;4.40;3.75;;;;;;;;;;4981939;28;20043;-44
2023/05/19 03:13:57;;;;;;;4.25;3.90;;;;;;;;;;4980331;28;20027;-42
2023/05/19 03:16:23;;;;;;;7.40;3.72;;;;;;;;;;4981088;28;20047;-48
2023/05/19 03:18:49;;;;;;;6.05;3.97;;;;;;;;;;4983892;28;20030;-41
2023/05/19 03:21:15;;;;;;;3.92;3.63;;;;;;;;;;4983779;28;20089;-43
2023/05/19 03:23:40;;;;;;;6.55;3.97;;;;;;;;;;4982007;28;20034;-45
2023/05/19 03:26:06;;;;;;;4.18;3.55;;;;;;;;;;4977346;28;20896;-47
2023/05/19 03:28:31;;;;;;;4.20;3.80;;;;;;;;;;4983390;28;20084;-45
2023/05/19 03:30:56;;;;;;;4.05;3.75;;;;;;;;;;4981486;28;20054;-46
2023/05/19 03:33:22;;;;;;;4.43;4.03;;;;;;;;;;4982730;28;20089;-41
2023/05/19 03:35:48;;;;;;;4.75;3.97;;;;;;;;;;4980950;28;20046;-45
2023/05/19 03:38:13;;;;;;;5.15;4.05;;;;;;;;;;4979762;28;20037;-43
2023/05/19 03:40:40;;;;;;;4.20;3.90;;;;;;;;;;4981865;28;20042;-47
2023/05/19 03:43:06;;;;;;;4.30;4.00;;;;;;;;;;4984042;28;20033;-43
2023/05/19 03:45:31;;;;;;;4.95;4.20;;;;;;;;;;4983421;28;20960;-42
2023/05/19 03:47:56;;;;;;;4.43;3.72;;;;;;;;;;4982364;28;21452;-41
2023/05/19 03:50:22;;;;;;;5.90;4.10;;;;;;;;;;4981989;28;20095;-42
2023/05/19 03:52:47;;;;;;;4.95;4.47;;;;;;;;;;4982686;28;20031;-44
2023/05/19 03:55:13;;;;;;;4.80;4.30;;;;;;;;;;4983188;28;20063;-49
2023/05/19 03:57:40;;;;;;;4.30;4.00;;;;;;;;;;4984514;28;20046;-44
2023/05/19 04:00:06;;;;;;;4.63;4.32;;;;;;;;;;4982428;28;20029;-41
2023/05/19 04:02:32;;;;;;;5.60;4.60;;;;;;;;;;4984057;28;20026;-48
2023/05/19 04:04:57;;;;;;;5.95;5.03;;;;;;;;;;4981400;28;20045;-43
2023/05/19 04:07:22;;;;;;;4.60;4.20;;;;;;;;;;4982777;28;20046;-48
2023/05/19 04:09:48;;;;;;;4.88;4.47;;;;;;;;;;4982218;28;20404;-42
2023/05/19 04:12:14;;;;;;;8.85;4.38;;;;;;;;;;4982372;28;20052;-46
2023/05/19 04:14:39;;;;;;;6.75;4.95;;;;;;;;;;4981743;28;20103;-42
2023/05/19 04:17:05;;;;;;;9.70;4.18;;;;;;;;;;4981701;28;20100;-43
2023/05/19 04:19:30;;;;;;;4.63;4.03;;;;;;;;;;4978291;28;20119;-46
2023/05/19 04:21:56;;;;;;;4.68;4.28;;;;;;;;;;4981860;28;20039;-43
2023/05/19 04:24:21;;;;;;;3.83;3.53;;;;;;;;;;4985166;28;20073;-45
2023/05/19 04:26:47;;;;;;;4.72;4.00;;;;;;;;;;4982421;28;20503;-48
2023/05/19 04:29:12;;;;;;;4.30;3.92;;;;;;;;;;4986854;28;20034;-44
2023/05/19 04:31:39;;;;;;;7.30;4.07;;;;;;;;;;4982078;28;20038;-44
2023/05/19 04:34:06;;;;;;;6.85;4.13;;;;;;;;;;4986594;28;20510;-46
2023/05/19 04:36:32;;;;;;;4.13;3.85;;;;;;;;;;4986469;28;20100;-44
2023/05/19 04:39:01;;;;;;;4.65;4.32;;;;;;;;;;4984913;28;20053;-44
2023/05/19 04:41:27;;;;;;;4.40;4.00;;;;;;;;;;4983177;28;20065;-44
2023/05/19 04:43:52;;;;;;;4.43;4.03;;;;;;;;;;4985007;28;20026;-44
2023/05/19 04:46:22;;;;;;;4.15;3.78;;;;;;;;;;4983069;28;20038;-43
2023/05/19 04:48:49;;;;;;;8.10;4.10;;;;;;;;;;4987848;28;20030;-48
2023/05/19 04:51:14;;;;;;;4.30;3.90;;;;;;;;;;4984587;28;20054;-48
2023/05/19 04:53:40;;;;;;;8.57;3.80;;;;;;;;;;4982251;28;20026;-44
2023/05/19 04:56:06;;;;;;;5.18;3.92;;;;;;;;;;4983747;28;20046;-44
2023/05/19 04:58:32;;;;;;;4.90;3.90;;;;;;;;;;4980476;28;20077;-41
2023/05/19 05:00:57;;;;;;;7.90;3.72;;;;;;;;;;4978742;28;20050;-42
2023/05/19 05:03:23;;;;;;;4.35;3.95;;;;;;;;;;4984979;28;20034;-48
2023/05/19 05:05:48;;;;;;;6.43;4.10;;;;;;;;;;4983128;28;20121;-42
2023/05/19 05:08:20;;;;;;;4.50;3.72;;;;;;;;;;4987122;28;20030;-44
2023/05/19 05:10:46;;;;;;;5.30;3.83;;;;;;;;;;4986665;28;20039;-46
2023/05/19 05:13:12;;;;;;;4.07;3.70;;;;;;;;;;4985620;28;20045;-47
2023/05/19 05:15:37;;;;;;;4.22;3.67;;;;;;;;;;4987519;28;20089;-41
2023/05/19 05:18:03;;;;;;;5.35;3.95;;;;;;;;;;4987344;28;20025;-44
2023/05/19 05:20:29;;;;;;;4.68;3.70;;;;;;;;;;4986126;28;20172;-42
2023/05/19 05:22:56;;;;;;;7.72;3.85;;;;;;;;;;4983529;28;20030;-42
2023/05/19 05:25:22;;;;;;;5.30;3.42;;;;;;;;;;4983113;28;20107;-42
2023/05/19 05:27:47;;;;;;;3.83;3.53;;;;;;;;;;4986647;28;20030;-42
2023/05/19 05:30:13;;;;;;;3.72;3.42;;;;;;;;;;4984711;28;20034;-44
2023/05/19 05:32:38;;;;;;;4.03;3.63;;;;;;;;;;4983147;28;20403;-44
2023/05/19 05:35:04;;;;;;;4.22;3.90;;;;;;;;;;4986215;28;20438;-44
2023/05/19 05:37:29;;;;;;;3.95;3.63;;;;;;;;;;4984824;28;20038;-42
2023/05/19 05:39:55;;;;;;;6.10;3.42;;;;;;;;;;4983513;28;20357;-41
2023/05/19 05:42:20;;;;;;;5.40;3.80;;;;;;;;;;4982784;28;20042;-44
2023/05/19 05:44:45;;;;;;;3.88;3.33;;;;;;;;;;4982571;28;20023;-43
2023/05/19 05:47:11;;;;;;;3.67;3.38;;;;;;;;;;4982843;28;20046;-41
2023/05/19 05:49:39;;;;;;;3.22;3.03;;;;;;;;;;4985335;28;20026;-46
2023/05/19 05:52:06;;;;;;;4.05;2.90;;;;;;;;;;4981747;28;20046;-43
2023/05/19 05:54:32;;;;;;;3.20;2.90;;;;;;;;;;4983307;28;20044;-42
2023/05/19 05:56:58;;;;;;;2.92;2.72;;;;;;;;;;4984535;28;20045;-42
2023/05/19 05:59:23;;;;;;;3.20;2.90;;;;;;;;;;4984219;28;20035;-45
2023/05/19 06:01:49;;;;;;;3.50;3.03;;;;;;;;;;4981763;28;20558;-42
2023/05/19 06:04:14;;;;;;;3.15;2.95;;;;;;;;;;4983820;28;20038;-42
2023/05/19 06:06:40;;;;;;;2.92;2.60;;;;;;;;;;4983729;28;20042;-44
2023/05/19 06:09:06;;;;;;;2.75;2.55;;;;;;;;;;4984878;28;20570;-44
2023/05/19 06:11:31;;;;;;;7.43;2.28;;;;;;;;;;4979894;28;20062;-43
2023/05/19 06:13:56;;;;;;;2.28;2.13;;;;;;;;;;4983036;28;20030;-43
2023/05/19 06:16:22;;;;;;;2.88;2.53;;;;;;;;;;4982905;28;20534;-42
2023/05/19 06:18:47;;;;;;;5.20;3.47;;;;;;;;;;4982572;28;20026;-44
2023/05/19 06:21:13;;;;;;;2.40;2.30;;;;;;;;;;4980421;28;20688;-43
2023/05/19 06:23:40;;;;;;;3.70;2.08;;;;;;;;;;4982041;28;20030;-43
2023/05/19 06:26:06;;;;;;;2.83;2.40;;;;;;;;;;4983947;28;20058;-45
2023/05/19 06:28:32;;;;;;;3.78;2.20;;;;;;;;;;4980280;28;20506;-42
2023/05/19 06:30:58;;;;;;;6.20;2.47;;;;;;;;;;4982217;28;20116;-45
2023/05/19 06:33:24;;;;;;;3.17;2.88;;;;;;;;;;4979289;28;20027;-43
2023/05/19 06:35:50;;;;;;;6.85;3.50;;;;;;;;;;4976465;28;20046;-42
2023/05/19 06:38:15;;;;;;;6.70;3.55;;;;;;;;;;4981357;28;21057;-42
2023/05/19 06:40:40;;;;;;;5.00;3.22;;;;;;;;;;5013269;28;20407;-43
2023/05/19 06:43:06;;;;;;;3.45;3.15;;;;;;;;;;4979928;28;20031;-44
2023/05/19 06:45:31;;;;;;;2.92;2.72;;;;;;;;;;4972517;28;20035;-42
2023/05/19 06:47:57;;;;;;;6.28;3.40;;;;;;;;;;4979730;28;20952;-43
2023/05/19 06:50:23;;;;;;;4.32;3.53;;;;;;;;;;4981745;28;20030;-43
2023/05/19 06:52:49;;;;;;;3.53;3.22;;;;;;;;;;4979638;28;20034;-42
2023/05/19 06:55:14;;;;;;;3.70;3.40;;;;;;;;;;4977025;28;20044;-45
2023/05/19 06:57:40;;;;;;;4.95;4.55;;;;;;;;;;4977217;28;20133;-45
2023/05/19 07:00:09;;;;;;;6.43;4.20;;;;;;;;;;4980552;28;20030;-42
2023/05/19 07:02:34;;;;;;;6.53;4.32;;;;;;;;;;5011015;28;20030;-43
2023/05/19 07:05:00;;;;;;;6.10;3.85;;;;;;;;;;4979619;28;20550;-43
2023/05/19 07:07:25;;;;;;;3.63;3.30;;;;;;;;;;4981804;28;20042;-42
2023/05/19 07:09:51;;;;;;;3.95;3.55;;;;;;;;;;4984784;28;20027;-42
2023/05/19 07:12:16;;;;;;;3.33;3.13;;;;;;;;;;4979662;28;20097;-42
2023/05/19 07:14:41;;;;;;;3.95;3.00;;;;;;;;;;4982135;28;20035;-41
2023/05/19 07:17:07;;;;;;;6.47;2.92;;;;;;;;;;4976129;28;20042;-40
2023/05/19 07:19:37;;;;;;;5.70;3.40;;;;;;;;;;4982004;28;20415;-48
2023/05/19 07:22:04;;;;;;;;;;;;;;;;;;4973237;28;20443;-40
2023/05/19 07:24:30;;;;;;;7.10;4.20;;;;;;;;;;4982161;28;19929;-41
2023/05/19 07:26:56;;;;;;;4.18;3.78;;;;;;;;;;4982116;28;20047;-40
2023/05/19 07:29:21;;;;;;;6.72;5.00;;;;;;;;;;4981490;28;20100;-41
2023/05/19 07:31:46;;;;;;;7.72;6.28;;;;;;;;;;4972992;28;22617;-43
2023/05/19 07:34:12;;;;;;;8.70;5.85;;;;;;;;;;4978129;28;20038;-40
2023/05/19 07:36:37;;;;;;;11.90;6.68;;;;;;;;;;4977132;28;20043;-45
2023/05/19 07:39:03;;;;;;;13.27;6.75;;;;;;;;;;4978745;28;20118;-43
2023/05/19 07:41:28;;;;;;;8.20;6.25;;;;;;;;;;4978110;28;20065;-42
2023/05/19 07:43:54;;;;;;;8.15;4.63;;;;;;;;;;4977667;28;20031;-43
2023/05/19 07:46:20;;;;;;;9.80;5.68;;;;;;;;;;4972783;28;20102;-41
2023/05/19 07:48:46;;;;;;;4.50;4.10;;;;;;;;;;4982830;28;20053;-44
2023/05/19 07:51:12;;;;;;;5.80;5.10;;;;;;;;;;4979467;28;20492;-44
2023/05/19 07:53:37;;;;;;;8.60;4.20;;;;;;;;;;4982143;28;20053;-41
2023/05/19 07:56:03;;;;;;;5.88;4.55;;;;;;;;;;4983503;28;20045;-43
2023/05/19 07:58:28;;;;;;;5.00;4.03;;;;;;;;;;4980442;28;20361;-40
2023/05/19 08:00:58;;;;;;;4.40;3.83;;;;;;;;;;4983521;28;20039;-43
2023/05/19 08:03:24;;;;;;;7.65;4.25;;;;;;;;;;4976185;28;20168;-41
2023/05/19 08:05:49;;;;;;;3.70;3.28;;;;;;;;;;4979556;28;20451;-41
2023/05/19 08:08:18;;;;;;;4.88;3.25;;;;;;;;;;4980762;28;20050;-42
2023/05/19 08:10:44;;;;;;;3.08;2.33;;;;;;;;;;4980149;28;20090;-40
2023/05/19 08:13:10;;;;;;;4.07;2.38;;;;;;;;;;4985257;28;20047;-40
2023/05/19 08:15:35;;;;;;;3.58;2.38;;;;;;;;;;4978930;28;20057;-44
2023/05/19 08:18:01;;;;;;;6.65;2.50;;;;;;;;;;4979925;28;20042;-42
2023/05/19 08:20:27;;;;;;;2.47;2.25;;;;;;;;;;4979015;28;20150;-43
2023/05/19 08:22:52;;;;;;;4.47;2.15;;;;;;;;;;4977498;28;20481;-40
2023/05/19 08:25:18;;;;;;;2.67;2.13;;;;;;;;;;4977696;28;20034;-41
2023/05/19 08:27:44;;;;;;;2.03;1.90;;;;;;;;;;4988530;28;20034;-46
2023/05/19 08:30:10;;;;;;;4.80;2.20;;;;;;;;;;4985744;28;20037;-47
2023/05/19 08:32:35;;;;;;;3.40;2.67;;;;;;;;;;4988467;28;20057;-40
2023/05/19 08:35:01;;;;;;;4.35;2.50;;;;;;;;;;4987109;28;20479;-40
2023/05/19 08:37:26;;;;;;;3.53;2.53;;;;;;;;;;4985640;28;20042;-40
2023/05/19 08:39:51;;;;;;;2.45;2.20;;;;;;;;;;4983615;28;20436;-42
2023/05/19 08:42:17;;;;;;;5.05;2.13;;;;;;;;;;4984374;28;20042;-40
2023/05/19 08:44:42;;;;;;;2.35;2.13;;;;;;;;;;4987023;28;20074;-40
2023/05/19 08:47:12;;;;;;;3.35;2.03;;;;;;;;;;4984715;28;20092;-41
2023/05/19 08:49:43;;;;;;;3.40;2.30;;;;;;;;;;4983523;28;20026;-48
2023/05/19 08:52:31;;;;;;;3.60;2.95;;;;;;;;;;4982926;28;20055;-41
2023/05/19 08:55:03;;;;;;;4.55;2.60;;;;;;;;;;4984461;28;20041;-40
2023/05/19 08:57:28;;;;;;;4.88;2.67;;;;;;;;;;4981524;28;20496;-43
2023/05/19 08:59:55;;;;;;;4.03;2.97;;;;;;;;;;4984142;28;20053;-39
2023/05/19 09:02:21;;;;;;;4.68;3.83;;;;;;;;;;4983821;28;20042;-40
2023/05/19 09:04:47;;;;;;;2.55;2.28;;;;;;;;;;4981581;28;20515;-42
2023/05/19 09:07:13;;;;;;;4.45;2.70;;;;;;;;;;4986796;28;20054;-42
2023/05/19 09:09:42;;;;;;;5.10;2.50;;;;;;;;;;4985103;28;20545;-43
2023/05/19 09:12:10;;;;;;;8.00;3.20;;;;;;;;;;4986588;28;20129;-41
2023/05/19 09:14:37;;;;;;;8.18;2.97;;;;;;;;;;4983402;28;20050;-43
2023/05/19 09:17:03;;;;;;;7.32;2.90;;;;;;;;;;4980260;28;20525;-44
2023/05/19 09:19:28;;;;;;;3.55;3.13;;;;;;;;;;4983483;28;20026;-46
2023/05/19 09:21:59;;;;;;;5.53;3.60;;;;;;;;;;4985050;28;20043;-40
2023/05/19 09:24:25;;;;;;;3.72;2.92;;;;;;;;;;4983592;28;20053;-40
2023/05/19 09:26:55;;;;;;;4.90;3.28;;;;;;;;;;4984881;28;20042;-41
2023/05/19 09:29:20;;;;;;;3.47;3.17;;;;;;;;;;4985610;28;20133;-43
2023/05/19 09:31:54;;;;;;;3.75;2.65;;;;;;;;;;4982717;28;20042;-39
2023/05/19 09:34:21;;;;;;;4.07;2.58;;;;;;;;;;4982540;28;20077;-40
2023/05/19 09:36:51;;;;;;;3.33;2.85;;;;;;;;;;4987561;28;20042;-44
2023/05/19 09:39:22;;;;;;;10.00;2.60;;;;;;;;;;4985337;28;20049;-40
2023/05/19 09:41:57;;;;;;;6.50;2.42;;;;;;;;;;4985468;28;20082;-42
2023/05/19 09:44:27;;;;;;;12.43;2.97;;;;;;;;;;4986650;28;20049;-40
2023/05/19 09:46:53;;;;;;;11.35;2.30;;;;;;;;;;4983480;28;20046;-41
2023/05/19 09:49:23;;;;;;;2.65;2.10;;;;;;;;;;4981963;28;20026;-40
2023/05/19 09:52:00;;;;;;;6.70;2.10;;;;;;;;;;4982546;28;20591;-40
2023/05/19 09:54:27;;;;;;;3.05;1.80;;;;;;;;;;4982051;28;20030;-44
2023/05/19 09:56:57;;;;;;;4.97;2.00;;;;;;;;;;4980715;28;20062;-41
2023/05/19 09:59:24;;;;;;;9.15;2.40;;;;;;;;;;4980164;28;20105;-45
2023/05/19 10:01:55;;;;;;;4.63;2.53;;;;;;;;;;4983952;28;20062;-40
2023/05/19 10:04:25;;;;;;;4.63;2.50;;;;;;;;;;4981047;28;20029;-40
2023/05/19 10:06:52;;;;;;;10.27;2.53;;;;;;;;;;4984197;28;20050;-49
2023/05/19 10:09:25;;;;;;;4.82;2.55;;;;;;;;;;4986702;28;20034;-44
2023/05/19 10:11:57;;;;;;;5.88;1.98;;;;;;;;;;4979193;28;20066;-40
2023/05/19 10:14:25;;;;;;;4.03;1.92;;;;;;;;;;4985690;28;20038;-43
2023/05/19 10:16:51;;;;;;;4.35;3.15;;;;;;;;;;4984559;28;20483;-43
2023/05/19 10:19:20;;;;;;;9.18;3.50;;;;;;;;;;4985491;28;20061;-41
2023/05/19 10:21:45;;;;;;;9.73;3.92;;;;;;;;;;4982261;28;20038;-46
2023/05/19 10:24:11;;;;;;;6.30;2.20;;;;;;;;;;4980419;28;20097;-46
2023/05/19 10:26:39;;;;;;;4.18;2.00;;;;;;;;;;4981019;28;20106;-39
2023/05/19 10:29:04;;;;;;;3.58;1.83;;;;;;;;;;4984732;28;21310;-41
2023/05/19 10:31:32;;;;;;;2.17;1.95;;;;;;;;;;4983582;28;20574;-45
2023/05/19 10:34:20;;;;;;;2.78;2.22;;;;;;;;;;4985697;28;20026;-40
2023/05/19 10:36:57;;;;;;;5.72;2.05;;;;;;;;;;4982796;28;20058;-42
2023/05/19 10:39:34;;;;;;;3.58;2.58;;;;;;;;;;4983840;28;20472;-44
2023/05/19 10:42:18;;;;;;;4.13;2.80;;;;;;;;;;4981054;28;20061;-41
2023/05/19 10:45:19;;;;;;;6.25;2.42;;;;;;;;;;4982804;28;20113;-41
2023/05/19 10:47:44;;;;;;;5.32;2.60;;;;;;;;;;4984824;28;20043;-43
2023/05/19 10:50:10;;;;;;;6.22;2.60;;;;;;;;;;4984743;28;20034;-47
2023/05/19 10:52:38;;;;;;;4.25;2.13;;;;;;;;;;4984474;28;20042;-46
2023/05/19 10:55:07;;;;;;;7.72;3.55;;;;;;;;;;4981779;28;20088;-42
2023/05/19 10:57:33;;;;;;;8.85;2.30;;;;;;;;;;4981285;28;20054;-45
2023/05/19 11:00:10;;;;;;;2.58;2.40;;;;;;;;;;4983319;28;20026;-42
2023/05/19 11:02:40;;;;;;;2.22;2.03;;;;;;;;;;4977908;28;20035;-40
2023/05/19 11:05:11;;;;;;;3.97;2.10;;;;;;;;;;4985188;28;20038;-43
2023/05/19 11:07:41;;;;;;;7.33;2.63;;;;;;;;;;4979545;28;20038;-41
2023/05/19 11:10:07;;;;;;;5.50;2.30;;;;;;;;;;4982594;28;20105;-42
2023/05/19 11:12:41;;;;;;;6.15;2.08;;;;;;;;;;4977687;28;20845;-41
2023/05/19 11:15:10;;;;;;;4.90;2.15;;;;;;;;;;4982122;28;20022;-44
2023/05/19 11:17:35;;;;;;;3.15;1.80;;;;;;;;;;4981181;28;20049;-40
2023/05/19 11:20:01;;;;;;;5.03;1.80;;;;;;;;;;4984585;28;20034;-42
2023/05/19 11:22:27;;;;;;;3.72;2.13;;;;;;;;;;4981509;28;20039;-40
2023/05/19 11:24:55;;;;;;;7.60;2.30;;;;;;;;;;4983303;28;20038;-41
2023/05/19 11:27:31;;;;;;;3.97;1.80;;;;;;;;;;4982532;28;20515;-43
2023/05/19 11:30:08;;;;;;;8.02;2.20;;;;;;;;;;4979467;28;20038;-41
2023/05/19 11:32:37;;;;;;;3.28;2.45;;;;;;;;;;4982773;28;20034;-41
2023/05/19 11:35:03;;;;;;;2.78;2.10;;;;;;;;;;4987163;28;20034;-41
2023/05/19 11:37:32;;;;;;;3.50;2.00;;;;;;;;;;4986657;28;20072;-44
2023/05/19 11:40:00;;;;;;;3.45;2.28;;;;;;;;;;4987695;28;20042;-41
2023/05/19 11:42:26;;;;;;;2.20;2.00;;;;;;;;;;4987018;28;20109;-46
2023/05/19 11:44:54;;;;;;;4.13;1.92;;;;;;;;;;4983461;28;20034;-48
2023/05/19 11:47:19;;;;;;;2.47;1.95;;;;;;;;;;4986621;28;20042;-41
2023/05/19 11:49:53;;;;;;;6.88;2.10;;;;;;;;;;4984480;28;20022;-44
2023/05/19 11:52:23;;;;;;;2.58;1.70;;;;;;;;;;4986002;28;20046;-46
2023/05/19 11:54:48;;;;;;;4.50;1.92;;;;;;;;;;4987432;28;20499;-46
2023/05/19 11:57:14;;;;;;;2.35;1.77;;;;;;;;;;4984793;28;20046;-41
2023/05/19 11:59:44;;;;;;;3.83;1.90;;;;;;;;;;4982662;28;20081;-40
2023/05/19 12:02:18;;;;;;;2.55;1.80;;;;;;;;;;4985944;28;20068;-40
2023/05/19 12:04:43;;;;;;;3.13;1.73;;;;;;;;;;4983301;28;20026;-41
2023/05/19 12:07:16;;;;;;;2.15;1.73;;;;;;;;;;4981911;28;20069;-43
2023/05/19 12:09:42;;;;;;;1.67;1.52;;;;;;;;;;4979569;28;20069;-45
2023/05/19 12:12:08;;;;;;;10.13;1.80;;;;;;;;;;4981076;28;20045;-42
2023/05/19 12:14:34;;;;;;;6.95;1.52;;;;;;;;;;4985959;28;20383;-41
2023/05/19 12:17:12;;;;;;;2.33;1.30;;;;;;;;;;4981683;28;20077;-44
2023/05/19 12:19:38;;;;;;;4.10;1.65;;;;;;;;;;4982226;28;20144;-41
2023/05/19 12:22:06;;;;;;;4.90;1.95;;;;;;;;;;4986147;28;20134;-42
2023/05/19 12:24:33;;;;;;;6.88;2.13;;;;;;;;;;4988878;28;20112;-41
2023/05/19 12:27:22;;;;;;;1.63;1.00;;;;;;;;;;4984629;28;20046;-45
2023/05/19 12:29:56;;;;;;;2.63;1.45;;;;;;;;;;4981750;28;20036;-41
2023/05/19 12:32:25;;;;;;;1.70;1.30;;;;;;;;;;4984632;28;20547;-43
2023/05/19 12:34:51;;;;;;;3.03;1.40;;;;;;;;;;4986366;28;20073;-48
2023/05/19 12:37:18;;;;;;;3.47;1.33;;;;;;;;;;4983087;28;20058;-42
2023/05/19 12:39:44;;;;;;;1.90;1.20;;;;;;;;;;4987211;28;20054;-40
2023/05/19 12:42:11;;;;;;;1.75;1.15;;;;;;;;;;4985981;28;20061;-43
2023/05/19 12:44:38;;;;;;;2.58;1.42;;;;;;;;;;4978440;28;20101;-41
2023/05/19 12:47:05;;;;;;;4.75;1.30;;;;;;;;;;4982863;28;20030;-41
2023/05/19 12:49:31;;;;;;;1.98;1.42;;;;;;;;;;4986014;28;20109;-41
2023/05/19 12:52:01;;;;;;;4.30;1.27;;;;;;;;;;4986899;28;20138;-42
2023/05/19 12:54:26;;;;;;;2.33;1.27;;;;;;;;;;4985998;28;20061;-41
2023/05/19 12:56:51;;;;;;;3.00;1.50;;;;;;;;;;4983603;28;20128;-44
2023/05/19 12:59:24;;;;;;;5.47;1.58;;;;;;;;;;4983863;28;20041;-41
2023/05/19 13:01:58;;;;;;;1.77;1.27;;;;;;;;;;4986061;28;20030;-40
2023/05/19 13:04:24;;;;;;;5.15;1.67;;;;;;;;;;4988237;28;20105;-40
2023/05/19 13:06:50;;;;;;;3.30;1.70;;;;;;;;;;4986008;28;20039;-43
2023/05/19 13:09:16;;;;;;;6.70;1.42;;;;;;;;;;4980578;28;20966;-40
2023/05/19 13:11:42;;;;;;;3.08;1.60;;;;;;;;;;4984380;28;20046;-40
2023/05/19 13:14:08;;;;;;;2.63;1.67;;;;;;;;;;4985330;28;20022;-40
2023/05/19 13:16:34;;;;;;;5.00;1.80;;;;;;;;;;4983158;28;20043;-41
2023/05/19 13:18:59;;;;;;;7.50;1.92;;;;;;;;;;4986530;28;20041;-44
2023/05/19 13:21:25;;;;;;;2.47;1.83;;;;;;;;;;4984842;28;20100;-48
2023/05/19 13:23:51;;;;;;;12.38;2.25;;;;;;;;;;4982943;28;20035;-41
2023/05/19 13:26:16;;;;;;;13.80;3.33;;;;;;;;;;4982246;28;20042;-43
2023/05/19 13:28:42;;;;;;;4.57;1.95;;;;;;;;;;4983832;28;20189;-41
2023/05/19 13:31:07;;;;;;;7.80;2.22;;;;;;;;;;4985561;28;20452;-40
2023/05/19 13:33:32;;;;;;;48.97;4.05;;;;;;;;;;4985368;28;20038;-41
2023/05/19 13:35:58;;;;;;;7.72;1.77;;;;;;;;;;4983019;28;20045;-45
2023/05/19 13:38:23;;;;;;;9.70;2.63;;;;;;;;;;4985447;28;20030;-43
2023/05/19 13:40:49;;;;;;;2.60;2.10;;;;;;;;;;4981956;28;20050;-42
2023/05/19 13:43:15;;;;;;;5.28;2.72;;;;;;;;;;4982356;28;20066;-41
2023/05/19 13:45:42;;;;;;;8.65;2.13;;;;;;;;;;4980886;28;20034;-41
2023/05/19 13:48:07;;;;;;;5.72;1.95;;;;;;;;;;4983584;28;20041;-41
2023/05/19 13:50:33;;;;;;;5.03;2.10;;;;;;;;;;4987741;28;20442;-41
2023/05/19 13:52:58;;;;;;;5.70;1.80;;;;;;;;;;4984718;28;20316;-44
2023/05/19 13:55:26;;;;;;;5.28;1.60;;;;;;;;;;4982409;28;20494;-45
2023/05/19 13:57:51;;;;;;;4.22;1.92;;;;;;;;;;4980480;28;20038;-44
2023/05/19 14:00:18;;;;;;;10.38;1.67;;;;;;;;;;4980125;28;20022;-42
2023/05/19 14:02:43;;;;;;;4.75;2.00;;;;;;;;;;4984915;28;20042;-41
2023/05/19 14:05:09;;;;;;;9.55;2.20;;;;;;;;;;4985222;28;20390;-44
2023/05/19 14:07:34;;;;;;;13.95;2.55;;;;;;;;;;4980209;28;20119;-42
2023/05/19 14:10:01;;;;;;;4.55;2.13;;;;;;;;;;4979032;28;20640;-40
2023/05/19 14:12:26;;;;;;;7.70;2.00;;;;;;;;;;4980643;28;20046;-43
2023/05/19 14:14:52;;;;;;;5.68;1.40;;;;;;;;;;4984310;28;20018;-42
2023/05/19 14:17:17;;;;;;;3.42;1.95;;;;;;;;;;4983095;28;20046;-42
2023/05/19 14:19:43;;;;;;;8.90;2.10;;;;;;;;;;4978991;28;20053;-40
2023/05/19 14:22:08;;;;;;;6.72;2.08;;;;;;;;;;4980865;28;20496;-41
2023/05/19 14:24:33;;;;;;;9.35;2.72;;;;;;;;;;4976809;28;20038;-41
2023/05/19 14:26:59;;;;;;;6.95;2.78;;;;;;;;;;4976280;28;20525;-42
2023/05/19 14:29:24;;;;;;;7.22;2.78;;;;;;;;;;4980359;28;20033;-43
2023/05/19 14:31:50;;;;;;;3.78;2.60;;;;;;;;;;4976062;28;20042;-41
2023/05/19 14:34:19;;;;;;;7.07;2.80;;;;;;;;;;4974249;28;20026;-42
2023/05/19 14:36:45;;;;;;;4.93;3.22;;;;;;;;;;4984200;28;20050;-40
2023/05/19 14:39:10;;;;;;;8.43;3.20;;;;;;;;;;4983852;28;20479;-42
2023/05/19 14:41:36;;;;;;;6.43;3.10;;;;;;;;;;4981299;28;20030;-44
2023/05/19 14:44:01;;;;;;;4.53;3.20;;;;;;;;;;4983414;28;23405;-42
2023/05/19 14:46:27;;;;;;;6.13;4.07;;;;;;;;;;4980532;28;20054;-41